Time;durP1;ratioP1;P1;durP2;ratioP2;P2;SDS_P1;SDS_P2;PMS_P1;PMS_P2;Temp;Humidity;BMP_temperature;BMP_pressure;BME280_temperature;BME280_humidity;BME280_pressure;Samples;Min_cycle;Max_cycle;Signal;HPM_P1;HPM_P2
2022/07/29 00:01:26;;;;;;;7.03;1.60;;;22.10;76.10;;;;;;4974269;28;20304;-48
2022/07/29 00:03:51;;;;;;;2.95;1.63;;;22.00;76.00;;;;;;4973670;28;20093;-48
2022/07/29 00:06:17;;;;;;;2.60;1.40;;;22.00;76.70;;;;;;4974142;28;20435;-53
2022/07/29 00:08:42;;;;;;;5.38;1.77;;;22.00;77.10;;;;;;4974172;28;20030;-51
2022/07/29 00:11:08;;;;;;;5.70;1.73;;;22.00;76.90;;;;;;4973615;28;20018;-54
2022/07/29 00:13:33;;;;;;;2.75;2.10;;;22.00;76.30;;;;;;4973747;28;20041;-49
2022/07/29 00:15:59;;;;;;;7.18;1.70;;;22.00;74.90;;;;;;4974021;28;20058;-50
2022/07/29 00:18:24;;;;;;;4.10;1.80;;;22.00;74.40;;;;;;4974018;28;20065;-50
2022/07/29 00:20:50;;;;;;;8.65;1.52;;;22.00;74.20;;;;;;4973910;28;20454;-51
2022/07/29 00:23:15;;;;;;;6.35;1.65;;;22.00;73.80;;;;;;4973530;28;20098;-48
2022/07/29 00:25:41;;;;;;;3.22;1.55;;;22.00;73.80;;;;;;4973873;28;20027;-50
2022/07/29 00:28:06;;;;;;;3.22;1.48;;;22.00;74.00;;;;;;4973808;28;20038;-51
2022/07/29 00:30:32;;;;;;;6.60;1.60;;;22.00;73.80;;;;;;4973891;28;20023;-54
2022/07/29 00:32:57;;;;;;;5.32;2.28;;;22.00;73.80;;;;;;4972363;28;20026;-47
2022/07/29 00:38:07;;;;;;;4.67;1.43;;;22.10;73.50;;;;;;4974024;28;20455;-47
2022/07/29 00:40:33;;;;;;;6.10;1.73;;;22.00;72.80;;;;;;4973854;28;20028;-51
2022/07/29 00:42:58;;;;;;;4.78;1.50;;;22.00;73.00;;;;;;4973001;28;20027;-53
2022/07/29 00:45:24;;;;;;;2.92;1.45;;;22.10;73.20;;;;;;4973222;28;20400;-50
2022/07/29 00:47:50;;;;;;;8.65;1.95;;;22.10;73.10;;;;;;4973708;28;20042;-52
2022/07/29 00:50:16;;;;;;;5.82;1.65;;;22.10;73.10;;;;;;4973339;28;20430;-51
2022/07/29 00:52:42;;;;;;;6.80;1.70;;;22.00;73.20;;;;;;4973426;28;20027;-51
2022/07/29 00:55:13;;;;;;;2.20;1.77;;;22.00;73.00;;;;;;4973092;28;20042;-51
2022/07/29 00:57:41;;;;;;;2.60;2.03;;;21.90;72.90;;;;;;4973399;28;20030;-47
2022/07/29 01:00:09;;;;;;;6.22;2.60;;;22.00;72.90;;;;;;4973773;28;20102;-53
2022/07/29 01:02:35;;;;;;;7.82;1.75;;;21.90;72.60;;;;;;4973254;28;20038;-48
2022/07/29 01:05:02;;;;;;;1.92;1.52;;;21.90;72.70;;;;;;4973099;28;20030;-47
2022/07/29 01:07:30;;;;;;;6.43;1.67;;;21.90;72.50;;;;;;4973301;28;20027;-50
2022/07/29 01:09:56;;;;;;;5.75;1.33;;;22.00;72.40;;;;;;4971740;28;20041;-48
2022/07/29 01:12:25;;;;;;;2.78;1.70;;;22.00;72.30;;;;;;4973203;28;20076;-56
2022/07/29 01:14:51;;;;;;;9.35;1.55;;;22.00;72.00;;;;;;4972711;28;20042;-49
2022/07/29 01:17:24;;;;;;;8.52;1.70;;;22.10;72.10;;;;;;4973130;28;20027;-48
2022/07/29 01:19:55;;;;;;;6.93;1.60;;;22.10;71.80;;;;;;4973006;28;20049;-50
2022/07/29 01:22:48;;;;;;;2.63;1.40;;;22.10;71.80;;;;;;4972531;28;20026;-52
2022/07/29 01:25:20;;;;;;;5.88;1.60;;;22.00;71.50;;;;;;4971552;28;20424;-47
2022/07/29 01:28:19;;;;;;;5.80;2.80;;;22.10;71.40;;;;;;4973185;28;20041;-48
2022/07/29 01:30:47;;;;;;;5.50;1.90;;;22.10;71.40;;;;;;4972934;28;20034;-53
2022/07/29 01:33:48;;;;;;;4.50;2.03;;;22.10;71.30;;;;;;4972724;28;20034;-53
2022/07/29 01:36:10;;;;;;;4.30;2.47;;;22.00;71.20;;;;;;4972675;28;20034;-49
2022/07/29 01:38:38;;;;;;;2.45;1.70;;;22.00;71.50;;;;;;4972842;28;20034;-55
2022/07/29 01:41:07;;;;;;;2.38;1.58;;;22.00;71.10;;;;;;4972596;28;20087;-47
2022/07/29 01:43:43;;;;;;;8.23;1.70;;;22.00;71.20;;;;;;4971999;28;20031;-49
2022/07/29 01:46:14;;;;;;;7.78;1.95;;;22.00;71.10;;;;;;4979082;23;20043;-45
2022/07/29 01:48:48;;;;;;;7.57;2.97;;;21.90;71.10;;;;;;4953378;28;20040;-46
2022/07/29 01:51:21;;;;;;;6.70;1.40;;;22.00;71.30;;;;;;4953457;28;20031;-47
2022/07/29 01:54:05;;;;;;;4.30;1.90;;;21.90;71.30;;;;;;4951750;29;20026;-45
2022/07/29 01:56:33;;;;;;;7.30;2.00;;;21.90;71.50;;;;;;4934232;29;20039;-47
2022/07/29 01:59:00;;;;;;;7.20;2.70;;;21.90;72.40;;;;;;4932798;29;20104;-46
2022/07/29 02:01:27;;;;;;;8.68;2.20;;;21.80;71.80;;;;;;4934141;29;20027;-46
2022/07/29 02:03:54;;;;;;;3.85;1.88;;;21.80;72.10;;;;;;4932460;29;20028;-47
2022/07/29 02:06:22;;;;;;;8.38;1.92;;;21.70;72.20;;;;;;4933883;29;20063;-45
2022/07/29 02:08:50;;;;;;;6.13;2.20;;;21.70;72.20;;;;;;4934100;29;20485;-43
2022/07/29 02:11:16;;;;;;;7.10;2.17;;;21.70;72.20;;;;;;4934022;29;20035;-47
2022/07/29 02:13:43;;;;;;;4.00;2.25;;;21.60;72.50;;;;;;4933701;29;20482;-45
2022/07/29 02:16:10;;;;;;;6.20;2.25;;;21.60;72.60;;;;;;4932619;29;20028;-46
2022/07/29 02:18:38;;;;;;;6.85;2.47;;;21.60;73.40;;;;;;4934007;29;20023;-47
2022/07/29 02:21:04;;;;;;;5.88;2.00;;;21.60;72.60;;;;;;4934050;29;20412;-46
2022/07/29 02:23:32;;;;;;;2.72;2.20;;;21.60;72.60;;;;;;4933773;29;20028;-46
2022/07/29 02:25:59;;;;;;;7.07;2.08;;;21.60;72.70;;;;;;4933794;29;20043;-45
2022/07/29 02:28:28;;;;;;;8.07;1.95;;;21.50;72.80;;;;;;4932562;29;20028;-45
2022/07/29 02:30:59;;;;;;;2.88;1.88;;;21.50;73.00;;;;;;4934092;29;20580;-45
2022/07/29 02:33:25;;;;;;;9.02;2.20;;;21.50;72.90;;;;;;4933651;29;20035;-46
2022/07/29 02:35:51;;;;;;;6.13;1.77;;;21.40;73.20;;;;;;4937128;29;20020;-45
2022/07/29 02:41:07;;;;;;;6.88;2.35;;;21.40;73.40;;;;;;4937540;29;20035;-44
2022/07/29 02:43:35;;;;;;;4.32;1.83;;;21.40;73.40;;;;;;4936367;29;20028;-49
2022/07/29 02:46:04;;;;;;;3.08;2.10;;;21.40;73.60;;;;;;4935907;29;20032;-46
2022/07/29 02:48:37;;;;;;;10.73;2.45;;;21.30;73.80;;;;;;4937186;29;20503;-48
2022/07/29 02:51:17;;;;;;;6.18;1.77;;;21.30;73.90;;;;;;4937159;29;20027;-46
2022/07/29 02:53:47;;;;;;;4.65;1.83;;;21.20;74.20;;;;;;4936862;29;20028;-47
2022/07/29 02:56:16;;;;;;;5.43;2.00;;;21.20;74.50;;;;;;4935727;29;20035;-46
2022/07/29 02:58:46;;;;;;;7.47;2.50;;;21.10;74.80;;;;;;4935767;29;20024;-49
2022/07/29 03:01:16;;;;;;;8.35;1.88;;;21.00;75.10;;;;;;4936949;29;20032;-48
2022/07/29 03:03:45;;;;;;;10.65;2.28;;;21.00;75.40;;;;;;4936521;29;20027;-45
2022/07/29 03:06:14;;;;;;;5.70;2.20;;;21.00;75.90;;;;;;4935547;29;20027;-45
2022/07/29 03:08:40;;;;;;;2.92;2.05;;;20.90;76.00;;;;;;4936784;29;20485;-45
2022/07/29 03:11:07;;;;;;;6.22;2.30;;;20.90;76.30;;;;;;4936744;29;20023;-45
2022/07/29 03:13:34;;;;;;;6.03;2.13;;;20.90;76.70;;;;;;4936468;29;20374;-44
2022/07/29 03:16:00;;;;;;;7.30;2.20;;;20.80;77.00;;;;;;4936692;29;20047;-45
2022/07/29 03:18:26;;;;;;;4.85;2.28;;;20.80;77.30;;;;;;4936667;29;20024;-44
2022/07/29 03:20:52;;;;;;;5.43;1.92;;;20.80;77.70;;;;;;4936503;29;20047;-45
2022/07/29 03:23:23;;;;;;;4.47;1.92;;;20.80;78.10;;;;;;4936504;29;20086;-45
2022/07/29 03:25:53;;;;;;;8.48;2.72;;;20.70;78.50;;;;;;4936430;29;20048;-46
2022/07/29 03:28:19;;;;;;;6.75;2.35;;;20.60;78.80;;;;;;4936549;29;20099;-46
2022/07/29 03:30:45;;;;;;;5.47;2.22;;;20.50;79.20;;;;;;4936575;29;20107;-45
2022/07/29 03:33:11;;;;;;;2.53;2.33;;;20.50;79.50;;;;;;4936121;29;20023;-49
2022/07/29 03:35:37;;;;;;;3.15;2.10;;;20.50;80.00;;;;;;4934862;29;20035;-46
2022/07/29 03:38:02;;;;;;;3.60;2.17;;;20.40;80.30;;;;;;4936417;29;20038;-47
2022/07/29 03:40:40;;;;;;;6.32;2.35;;;20.40;80.60;;;;;;4936485;29;20489;-44
2022/07/29 03:43:08;;;;;;;5.05;2.63;;;20.30;80.90;;;;;;4934356;29;20400;-44
2022/07/29 03:45:35;;;;;;;3.92;2.10;;;20.30;81.30;;;;;;4935373;29;20422;-46
2022/07/29 03:48:13;;;;;;;11.57;2.45;;;20.20;81.60;;;;;;4936136;29;20484;-45
2022/07/29 03:50:39;;;;;;;3.83;2.38;;;20.20;82.20;;;;;;4936091;29;20493;-47
2022/07/29 03:53:05;;;;;;;4.65;2.53;;;20.10;82.50;;;;;;4935827;29;20121;-45
2022/07/29 03:55:37;;;;;;;7.75;2.80;;;20.10;83.00;;;;;;4935867;29;20039;-45
2022/07/29 03:58:03;;;;;;;5.72;3.22;;;20.10;83.20;;;;;;4935976;29;20023;-46
2022/07/29 04:00:29;;;;;;;8.75;3.90;;;20.00;83.50;;;;;;4934600;29;20075;-48
2022/07/29 04:02:56;;;;;;;3.85;2.05;;;20.00;83.90;;;;;;4934458;29;20031;-46
2022/07/29 04:05:22;;;;;;;9.93;3.97;;;20.00;84.00;;;;;;4935529;29;20066;-47
2022/07/29 04:07:48;;;;;;;5.93;2.95;;;20.00;84.10;;;;;;4935781;29;20035;-48
2022/07/29 04:10:15;;;;;;;5.40;2.10;;;20.00;84.20;;;;;;4935611;29;20024;-46
2022/07/29 04:12:41;;;;;;;6.63;2.50;;;19.90;84.20;;;;;;4935712;29;20031;-47
2022/07/29 04:15:07;;;;;;;5.53;2.30;;;19.90;84.40;;;;;;4935285;29;20016;-46
2022/07/29 04:17:32;;;;;;;2.55;2.33;;;19.90;84.70;;;;;;4935726;29;20481;-44
2022/07/29 04:19:58;;;;;;;6.68;2.25;;;19.80;84.80;;;;;;4935558;29;20046;-44
2022/07/29 04:22:24;;;;;;;7.53;2.20;;;19.80;84.90;;;;;;4935488;29;20031;-48
2022/07/29 04:24:49;;;;;;;5.93;2.78;;;19.80;85.10;;;;;;4934969;29;20382;-48
2022/07/29 04:27:14;;;;;;;5.57;2.42;;;19.80;85.00;;;;;;4935228;29;20450;-46
2022/07/29 04:29:40;;;;;;;4.13;2.50;;;19.80;85.00;;;;;;4935177;29;20039;-46
2022/07/29 04:32:06;;;;;;;8.50;2.20;;;19.80;85.30;;;;;;4933902;29;20079;-47
2022/07/29 04:34:31;;;;;;;7.82;2.50;;;19.80;85.10;;;;;;4934761;29;20481;-46
2022/07/29 04:36:57;;;;;;;5.00;2.95;;;19.70;85.30;;;;;;4935241;29;20042;-44
2022/07/29 04:39:23;;;;;;;6.07;2.80;;;19.80;85.40;;;;;;4935197;29;20565;-46
2022/07/29 04:41:49;;;;;;;6.05;2.13;;;19.80;85.70;;;;;;4934837;29;20032;-45
2022/07/29 04:44:15;;;;;;;5.13;2.30;;;19.80;85.30;;;;;;4934740;29;20572;-45
2022/07/29 04:46:41;;;;;;;5.72;2.70;;;19.80;85.50;;;;;;4933809;29;20039;-48
2022/07/29 04:49:06;;;;;;;9.80;3.22;;;19.80;85.60;;;;;;4934228;29;20098;-45
2022/07/29 04:51:31;;;;;;;6.50;2.22;;;19.90;85.70;;;;;;4934865;29;20023;-46
2022/07/29 04:53:58;;;;;;;8.68;2.55;;;20.00;85.70;;;;;;4925460;29;20379;-45
2022/07/29 04:56:24;;;;;;;8.38;2.50;;;20.00;85.40;;;;;;4915756;29;20024;-46
2022/07/29 04:58:49;;;;;;;7.70;3.15;;;20.20;84.80;;;;;;4925347;29;20397;-43
2022/07/29 05:01:14;;;;;;;6.93;2.30;;;20.60;84.20;;;;;;4934370;29;20035;-48
2022/07/29 05:03:40;;;;;;;5.15;2.08;;;20.90;83.00;;;;;;4933901;29;20481;-45
2022/07/29 05:06:06;;;;;;;5.97;2.55;;;21.40;81.50;;;;;;4934615;29;20055;-45
2022/07/29 05:08:32;;;;;;;11.35;2.30;;;21.90;80.40;;;;;;4934104;29;20523;-46
2022/07/29 05:10:57;;;;;;;4.22;2.30;;;22.30;78.80;;;;;;4915818;29;20028;-48
2022/07/29 05:13:23;;;;;;;10.20;2.75;;;22.70;77.80;;;;;;4915442;29;20033;-45
2022/07/29 05:15:49;;;;;;;7.45;2.20;;;23.00;77.20;;;;;;4921777;29;20034;-45
2022/07/29 05:18:14;;;;;;;6.22;2.72;;;23.40;76.10;;;;;;4934492;29;20513;-46
2022/07/29 05:20:40;;;;;;;9.68;2.70;;;23.80;75.10;;;;;;4934618;29;20036;-46
2022/07/29 05:23:05;;;;;;;5.40;2.30;;;24.20;74.10;;;;;;4918554;29;20036;-44
2022/07/29 05:25:31;;;;;;;3.65;2.00;;;24.50;72.90;;;;;;4915515;29;20458;-44
2022/07/29 05:27:56;;;;;;;10.00;2.58;;;25.00;72.00;;;;;;4915586;29;20079;-46
2022/07/29 05:30:22;;;;;;;7.30;4.03;;;25.30;71.50;;;;;;4928275;29;20050;-47
2022/07/29 05:32:48;;;;;;;4.25;2.20;;;25.50;70.70;;;;;;4934252;29;20023;-46
2022/07/29 05:35:14;;;;;;;6.43;2.40;;;25.60;69.90;;;;;;4933883;29;20169;-51
2022/07/29 05:37:39;;;;;;;10.95;2.10;;;25.40;70.30;;;;;;4934256;29;20036;-47
2022/07/29 05:40:06;;;;;;;4.18;2.20;;;25.50;70.20;;;;;;4935047;29;20481;-46
2022/07/29 05:42:31;;;;;;;3.28;1.83;;;25.60;69.70;;;;;;4933416;29;20515;-46
2022/07/29 05:44:57;;;;;;;3.63;2.05;;;25.80;69.60;;;;;;4932857;29;20043;-46
2022/07/29 05:47:23;;;;;;;4.07;2.45;;;26.10;69.20;;;;;;4934169;29;20035;-45
2022/07/29 05:49:48;;;;;;;5.88;1.80;;;26.50;68.20;;;;;;4934046;29;20055;-47
2022/07/29 05:52:14;;;;;;;6.70;2.47;;;26.40;67.80;;;;;;4934138;29;20028;-45
2022/07/29 05:54:40;;;;;;;7.22;2.00;;;26.50;67.90;;;;;;4933805;29;20035;-47
2022/07/29 05:57:06;;;;;;;5.78;2.28;;;26.80;67.50;;;;;;4933874;29;20034;-46
2022/07/29 05:59:36;;;;;;;9.45;1.85;;;27.10;66.70;;;;;;4934318;29;20400;-47
2022/07/29 06:02:02;;;;;;;4.82;1.98;;;27.10;66.60;;;;;;4934138;29;20027;-46
2022/07/29 06:04:27;;;;;;;4.07;2.00;;;27.20;66.50;;;;;;4933609;29;20036;-45
2022/07/29 06:06:53;;;;;;;6.35;2.15;;;27.50;66.00;;;;;;4934135;29;20393;-46
2022/07/29 06:09:18;;;;;;;12.82;3.03;;;28.00;66.00;;;;;;4935246;29;20040;-45
2022/07/29 06:11:44;;;;;;;3.88;2.25;;;28.60;64.10;;;;;;4937984;29;20551;-45
2022/07/29 06:14:09;;;;;;;8.95;2.08;;;28.90;63.50;;;;;;4937535;29;20433;-45
2022/07/29 06:16:35;;;;;;;8.68;2.95;;;29.40;62.60;;;;;;4937878;29;20027;-45
2022/07/29 06:19:00;;;;;;;5.32;2.30;;;29.50;61.80;;;;;;4937670;29;20043;-46
2022/07/29 06:21:26;;;;;;;10.82;2.35;;;29.10;62.40;;;;;;4937786;29;20035;-46
2022/07/29 06:23:51;;;;;;;6.95;2.00;;;28.80;63.30;;;;;;4937550;29;20024;-46
2022/07/29 06:26:17;;;;;;;5.55;2.40;;;29.20;62.80;;;;;;4937650;29;20429;-47
2022/07/29 06:28:42;;;;;;;5.43;2.38;;;29.40;61.80;;;;;;4936256;29;20075;-49
2022/07/29 06:31:08;;;;;;;8.32;2.35;;;29.80;61.30;;;;;;4937536;29;20083;-47
2022/07/29 06:33:34;;;;;;;4.38;2.38;;;30.00;61.10;;;;;;4935881;29;20024;-45
2022/07/29 06:35:59;;;;;;;3.35;2.17;;;30.50;59.90;;;;;;4937274;29;20035;-45
2022/07/29 06:38:25;;;;;;;4.03;2.35;;;30.60;59.80;;;;;;4937293;29;20023;-45
2022/07/29 06:40:59;;;;;;;4.82;1.92;;;30.50;59.20;;;;;;4937387;29;20102;-46
2022/07/29 06:43:26;;;;;;;5.25;2.28;;;30.00;59.50;;;;;;4936987;29;20020;-49
2022/07/29 06:45:52;;;;;;;5.00;2.60;;;29.50;59.70;;;;;;4937184;29;20437;-45
2022/07/29 06:48:17;;;;;;;6.60;1.98;;;29.80;60.70;;;;;;4937309;29;20061;-46
2022/07/29 06:50:43;;;;;;;5.03;2.42;;;30.40;59.40;;;;;;4937541;29;20044;-48
2022/07/29 06:53:09;;;;;;;5.00;2.17;;;31.00;59.50;;;;;;4937533;29;20039;-44
2022/07/29 06:55:34;;;;;;;7.55;3.10;;;31.50;57.60;;;;;;4934997;29;20533;-46
2022/07/29 06:58:00;;;;;;;5.50;2.00;;;31.70;58.10;;;;;;4936470;29;20032;-48
2022/07/29 07:00:25;;;;;;;10.18;1.98;;;32.00;57.70;;;;;;4936800;29;20073;-46
2022/07/29 07:02:57;;;;;;;8.43;3.17;;;32.10;57.40;;;;;;4936542;29;20035;-46
2022/07/29 07:05:23;;;;;;;9.95;2.55;;;32.30;56.10;;;;;;4936772;29;20494;-52
2022/07/29 07:07:48;;;;;;;10.57;3.15;;;32.30;56.70;;;;;;4937031;29;20039;-52
2022/07/29 07:10:14;;;;;;;9.77;2.13;;;32.20;56.80;;;;;;4936102;29;20493;-48
2022/07/29 07:12:40;;;;;;;5.45;2.13;;;32.20;56.50;;;;;;4936636;29;20534;-46
2022/07/29 07:15:06;;;;;;;4.82;2.67;;;32.30;56.30;;;;;;4932134;29;20343;-49
2022/07/29 07:17:32;;;;;;;4.60;2.35;;;32.50;56.20;;;;;;4924604;29;20024;-50
2022/07/29 07:19:57;;;;;;;4.80;2.25;;;32.20;55.90;;;;;;4936483;29;20035;-47
2022/07/29 07:22:23;;;;;;;6.13;2.63;;;31.60;56.20;;;;;;4936766;29;20541;-49
2022/07/29 07:24:51;;;;;;;6.13;2.22;;;31.60;56.20;;;;;;4938454;29;20485;-46
2022/07/29 07:27:17;;;;;;;4.03;2.65;;;31.90;56.00;;;;;;4936732;29;20557;-51
2022/07/29 07:29:42;;;;;;;4.60;2.25;;;32.00;55.60;;;;;;4936672;29;20209;-50
2022/07/29 07:32:12;;;;;;;7.75;2.35;;;32.30;55.50;;;;;;4936458;29;20054;-48
2022/07/29 07:34:38;;;;;;;13.57;2.78;;;32.70;55.60;;;;;;4931579;29;20020;-45
2022/07/29 07:37:04;;;;;;;3.55;2.50;;;32.80;54.90;;;;;;4951947;29;20023;-48
2022/07/29 07:39:29;;;;;;;6.75;2.22;;;32.90;55.30;;;;;;4937014;28;20127;-50
2022/07/29 07:41:55;;;;;;;4.38;2.47;;;33.30;55.00;;;;;;4917273;29;20033;-49
2022/07/29 07:44:20;;;;;;;5.80;2.40;;;33.30;54.80;;;;;;4925408;29;20027;-49
2022/07/29 07:46:58;;;;;;;5.82;2.60;;;33.30;55.30;;;;;;4957019;23;20052;-50
2022/07/29 07:49:24;;;;;;;3.28;2.30;;;33.80;54.30;;;;;;4953563;29;20164;-52
2022/07/29 07:51:49;;;;;;;10.70;2.35;;;34.30;54.20;;;;;;4957438;28;20023;-49
2022/07/29 07:54:15;;;;;;;9.93;2.60;;;34.40;54.00;;;;;;4959094;28;20034;-49
2022/07/29 07:56:40;;;;;;;7.00;2.00;;;34.90;54.40;;;;;;4950615;28;20039;-52
2022/07/29 07:59:06;;;;;;;3.88;2.05;;;34.80;53.70;;;;;;4950864;28;20039;-49
2022/07/29 08:01:31;;;;;;;4.97;1.92;;;34.50;53.80;;;;;;4940947;29;20106;-50
2022/07/29 08:03:57;;;;;;;7.57;2.28;;;34.90;54.00;;;;;;4947792;29;20508;-52
2022/07/29 08:06:24;;;;;;;13.57;2.67;;;35.10;54.10;;;;;;4936501;29;20023;-55
2022/07/29 08:08:50;;;;;;;7.65;2.00;;;34.70;54.20;;;;;;4936120;29;20027;-53
2022/07/29 08:11:16;;;;;;;8.15;4.93;;;34.90;54.80;;;;;;4935616;29;20077;-49
2022/07/29 08:13:42;;;;;;;16.92;14.73;;;34.70;55.10;;;;;;4935031;29;20039;-50
2022/07/29 08:16:11;;;;;;;4.60;3.42;;;35.30;55.00;;;;;;4933759;29;20032;-54
2022/07/29 08:18:38;;;;;;;4.57;2.10;;;35.40;55.40;;;;;;4940085;29;20031;-53
2022/07/29 08:21:04;;;;;;;5.63;2.35;;;35.60;54.90;;;;;;4940940;28;20027;-52
2022/07/29 08:23:38;;;;;;;5.72;2.10;;;35.40;54.80;;;;;;4934115;29;20020;-52
2022/07/29 08:26:10;;;;;;;6.82;2.25;;;35.60;55.30;;;;;;4935665;29;20026;-51
2022/07/29 08:28:39;;;;;;;8.38;2.25;;;36.00;55.00;;;;;;4935260;29;20028;-54
2022/07/29 08:31:05;;;;;;;4.63;1.88;;;36.60;53.80;;;;;;4935535;29;20035;-56
2022/07/29 08:33:31;;;;;;;3.35;2.22;;;36.50;54.10;;;;;;4933472;29;20038;-56
2022/07/29 08:35:56;;;;;;;9.07;2.35;;;36.10;54.90;;;;;;4934086;29;20034;-52
2022/07/29 08:38:22;;;;;;;6.78;2.22;;;35.60;55.80;;;;;;4935315;29;20122;-54
2022/07/29 08:40:48;;;;;;;3.75;2.25;;;34.80;57.00;;;;;;4933927;29;20122;-52
2022/07/29 08:43:13;;;;;;;3.15;1.98;;;34.50;57.50;;;;;;4935010;29;20024;-54
2022/07/29 08:45:45;;;;;;;6.43;2.17;;;33.90;58.20;;;;;;4934972;29;20410;-52
2022/07/29 08:48:15;;;;;;;5.93;1.90;;;33.60;58.60;;;;;;4934798;29;20062;-52
2022/07/29 08:50:42;;;;;;;4.60;2.13;;;33.50;59.10;;;;;;4935366;29;20489;-55
2022/07/29 08:53:12;;;;;;;5.68;2.58;;;33.20;59.70;;;;;;4934782;29;20071;-46
2022/07/29 08:55:50;;;;;;;5.10;2.03;;;33.10;60.10;;;;;;4934898;29;20023;-51
2022/07/29 08:58:16;;;;;;;7.80;2.55;;;32.30;60.70;;;;;;4935627;29;20032;-53
2022/07/29 09:00:49;;;;;;;2.10;1.77;;;31.70;61.50;;;;;;4944526;29;20047;-53
2022/07/29 09:03:17;;;;;;;5.82;2.25;;;31.10;63.30;;;;;;4952751;28;20023;-58
2022/07/29 09:05:44;;;;;;;3.72;2.70;;;30.60;63.70;;;;;;4940063;28;20476;-58
2022/07/29 09:08:10;;;;;;;7.50;2.47;;;30.20;64.90;;;;;;4951499;28;20050;-57
2022/07/29 09:10:36;;;;;;;4.35;2.30;;;30.40;65.00;;;;;;4939452;29;20032;-59
2022/07/29 09:13:02;;;;;;;6.13;2.60;;;31.00;64.70;;;;;;4933117;29;20039;-59
2022/07/29 09:15:27;;;;;;;4.72;2.47;;;31.70;63.90;;;;;;4935515;29;20145;-58
2022/07/29 09:17:55;;;;;;;2.97;1.95;;;32.30;62.60;;;;;;4937869;29;20096;-59
2022/07/29 09:20:24;;;;;;;5.63;2.80;;;32.60;61.00;;;;;;4954654;29;20110;-60
2022/07/29 09:22:55;;;;;;;5.35;2.67;;;32.80;61.30;;;;;;4954496;29;20047;-55
2022/07/29 09:25:33;;;;;;;3.58;2.45;;;32.50;61.40;;;;;;4953250;28;20019;-56
2022/07/29 09:28:08;;;;;;;3.42;2.50;;;32.40;62.00;;;;;;4935624;28;20023;-57
2022/07/29 09:30:34;;;;;;;3.15;2.40;;;32.50;62.50;;;;;;4937544;29;20027;-54
2022/07/29 09:33:02;;;;;;;4.60;2.10;;;32.80;62.30;;;;;;4953309;28;20031;-59
2022/07/29 09:35:29;;;;;;;5.88;2.28;;;32.80;61.30;;;;;;4953597;28;20023;-52
2022/07/29 09:37:54;;;;;;;15.10;9.35;;;32.60;61.50;;;;;;4935865;29;20401;-52
2022/07/29 09:40:25;;;;;;;20.33;13.45;;;32.30;61.30;;;;;;4936370;29;20059;-50
2022/07/29 09:42:53;;;;;;;10.13;7.20;;;32.20;61.50;;;;;;4936022;29;20074;-54
2022/07/29 09:45:32;;;;;;;7.40;2.83;;;32.10;62.40;;;;;;4937028;29;20107;-50
2022/07/29 09:48:03;;;;;;;6.18;2.38;;;32.00;61.50;;;;;;4916364;29;20036;-51
2022/07/29 09:50:39;;;;;;;5.82;2.42;;;31.90;61.90;;;;;;4937997;29;20042;-53
2022/07/29 09:53:05;;;;;;;7.65;2.40;;;31.70;62.30;;;;;;4934241;29;20024;-52
2022/07/29 09:55:31;;;;;;;2.80;2.22;;;31.40;63.20;;;;;;4934109;29;20038;-52
2022/07/29 09:58:26;;;;;;;6.78;2.65;;;31.40;64.40;;;;;;4933212;29;20094;-55
2022/07/29 10:00:53;;;;;;;6.95;2.40;;;31.40;63.30;;;;;;4944943;28;20454;-54
2022/07/29 10:03:20;;;;;;;5.35;2.42;;;31.40;63.30;;;;;;4939235;28;20038;-51
2022/07/29 10:05:46;;;;;;;4.82;2.15;;;31.40;64.10;;;;;;4934433;29;20414;-50
2022/07/29 10:08:12;;;;;;;2.97;2.35;;;31.50;64.10;;;;;;4934034;29;20024;-49
2022/07/29 10:10:41;;;;;;;4.55;2.30;;;31.40;64.20;;;;;;4934035;29;20474;-50
2022/07/29 10:13:11;;;;;;;5.50;2.42;;;31.20;63.60;;;;;;4933728;29;20103;-52
2022/07/29 10:15:40;;;;;;;4.05;2.30;;;30.90;63.90;;;;;;4933828;29;20370;-51
2022/07/29 10:18:07;;;;;;;4.88;2.50;;;30.80;65.10;;;;;;4934005;29;20023;-51
2022/07/29 10:20:34;;;;;;;7.28;2.35;;;30.80;65.30;;;;;;4934003;29;20028;-50
2022/07/29 10:22:59;;;;;;;12.02;3.15;;;30.70;64.60;;;;;;4932698;29;20027;-48
2022/07/29 10:25:26;;;;;;;5.88;2.75;;;30.50;64.80;;;;;;4933312;29;20023;-51
2022/07/29 10:27:53;;;;;;;7.53;2.65;;;30.40;65.20;;;;;;4933921;29;20038;-53
2022/07/29 10:30:19;;;;;;;8.77;2.63;;;30.30;65.60;;;;;;4934107;29;20027;-50
2022/07/29 10:33:09;;;;;;;3.67;2.55;;;30.20;66.20;;;;;;4941810;29;20114;-50
2022/07/29 10:35:43;;;;;;;5.43;2.50;;;30.20;65.70;;;;;;4947284;28;20031;-49
2022/07/29 10:38:27;;;;;;;3.83;2.80;;;30.10;66.30;;;;;;4952968;28;20506;-49
2022/07/29 10:41:27;;;;;;;5.93;2.40;;;30.00;65.80;;;;;;4935171;28;20043;-51
2022/07/29 10:44:22;;;;;;;6.10;2.50;;;29.90;66.10;;;;;;4932121;29;20031;-52
2022/07/29 10:46:48;;;;;;;4.32;2.50;;;30.00;66.40;;;;;;4936410;28;20032;-48
2022/07/29 10:49:20;;;;;;;2.83;2.22;;;29.90;66.60;;;;;;4933653;29;20035;-52
2022/07/29 10:51:54;;;;;;;5.55;1.98;;;29.90;67.00;;;;;;4933811;29;20518;-50
2022/07/29 10:54:38;;;;;;;10.60;2.50;;;29.90;67.30;;;;;;4933393;29;20020;-52
2022/07/29 10:57:13;;;;;;;3.25;2.30;;;30.10;67.60;;;;;;4956204;28;20035;-49
2022/07/29 10:59:39;;;;;;;4.38;2.40;;;30.10;66.30;;;;;;4954864;28;20063;-50
2022/07/29 11:02:33;;;;;;;2.13;2.00;;;29.80;67.30;;;;;;4955864;28;20036;-48
2022/07/29 11:04:58;;;;;;;4.05;2.30;;;29.70;68.20;;;;;;4955578;28;20031;-47
2022/07/29 11:07:25;;;;;;;6.70;2.47;;;29.50;67.90;;;;;;4955805;28;20024;-48
2022/07/29 11:10:19;;;;;;;4.68;2.95;;;29.60;68.40;;;;;;4947818;29;20062;-46
2022/07/29 11:12:46;;;;;;;20.88;15.90;;;29.40;69.00;;;;;;4936829;29;20023;-49
2022/07/29 11:15:23;;;;;;;5.57;2.75;;;29.30;70.50;;;;;;4940206;28;20050;-50
2022/07/29 11:17:52;;;;;;;4.30;2.55;;;29.30;69.70;;;;;;4955732;29;20098;-49
2022/07/29 11:20:45;;;;;;;9.90;2.95;;;29.40;69.10;;;;;;4951488;28;20028;-48
2022/07/29 11:23:28;;;;;;;3.97;3.22;;;29.40;68.80;;;;;;4955726;28;20055;-50
2022/07/29 11:26:25;;;;;;;6.55;2.65;;;29.30;68.80;;;;;;4955342;28;20027;-49
2022/07/29 11:28:58;;;;;;;8.10;2.60;;;29.30;68.70;;;;;;4955695;28;20023;-54
2022/07/29 11:31:43;;;;;;;4.53;2.50;;;29.30;69.10;;;;;;4954386;28;20106;-50
2022/07/29 11:34:32;;;;;;;4.68;2.38;;;29.20;68.40;;;;;;4954110;29;20047;-53
2022/07/29 11:37:10;;;;;;;4.00;2.90;;;29.30;69.00;;;;;;4954990;28;20035;-49
2022/07/29 11:39:38;;;;;;;3.33;2.40;;;29.20;69.20;;;;;;4955190;28;20378;-50
2022/07/29 11:42:22;;;;;;;6.72;2.40;;;29.20;69.40;;;;;;4945446;28;20032;-47
2022/07/29 11:44:54;;;;;;;10.30;2.90;;;29.10;68.70;;;;;;4935823;29;20059;-50
2022/07/29 11:47:21;;;;;;;5.60;2.63;;;29.00;69.40;;;;;;4934915;29;20092;-50
2022/07/29 11:49:47;;;;;;;6.50;2.63;;;29.00;71.00;;;;;;4935988;29;20074;-48
2022/07/29 11:52:13;;;;;;;8.07;2.60;;;29.20;69.70;;;;;;4936014;29;20032;-49
2022/07/29 11:54:42;;;;;;;6.05;2.13;;;29.20;69.50;;;;;;4945069;29;20031;-48
2022/07/29 11:57:08;;;;;;;7.05;3.17;;;29.20;69.30;;;;;;4948661;28;20164;-49
2022/07/29 11:59:39;;;;;;;7.32;2.55;;;29.30;68.90;;;;;;4939402;29;20154;-51
2022/07/29 12:02:05;;;;;;;5.65;3.35;;;29.40;69.30;;;;;;4955199;28;20020;-51
2022/07/29 12:04:31;;;;;;;7.95;2.40;;;29.40;68.30;;;;;;4952409;28;20019;-49
2022/07/29 12:06:56;;;;;;;8.52;2.70;;;29.30;68.60;;;;;;4943101;28;20516;-48
2022/07/29 12:09:25;;;;;;;2.63;2.42;;;29.30;68.40;;;;;;4951429;28;20286;-51
2022/07/29 12:11:57;;;;;;;3.30;2.20;;;29.20;69.80;;;;;;4956610;28;20031;-52
2022/07/29 12:14:32;;;;;;;4.70;2.38;;;29.20;69.70;;;;;;4949166;28;20043;-48
2022/07/29 12:16:59;;;;;;;2.50;2.30;;;29.30;70.10;;;;;;4942569;28;20045;-47
2022/07/29 12:19:28;;;;;;;3.17;2.35;;;29.30;69.40;;;;;;4937827;29;20035;-51
2022/07/29 12:21:55;;;;;;;2.80;2.05;;;29.40;69.60;;;;;;4939609;29;20074;-49
2022/07/29 12:24:21;;;;;;;5.22;2.63;;;29.60;69.20;;;;;;4946434;29;20028;-51
2022/07/29 12:26:52;;;;;;;3.97;2.47;;;29.70;68.10;;;;;;4954636;28;20039;-52
2022/07/29 12:29:18;;;;;;;4.82;2.60;;;29.80;68.50;;;;;;4954649;28;20053;-49
2022/07/29 12:31:44;;;;;;;5.07;2.83;;;29.70;68.20;;;;;;4951845;28;20033;-49
2022/07/29 12:34:15;;;;;;;2.25;2.03;;;29.60;68.10;;;;;;4934983;29;20031;-49
2022/07/29 12:36:42;;;;;;;3.08;2.53;;;29.50;68.00;;;;;;4935174;29;20051;-49
2022/07/29 12:39:08;;;;;;;5.30;2.83;;;29.50;68.90;;;;;;4933707;29;20409;-47
2022/07/29 12:41:34;;;;;;;8.70;3.20;;;29.50;68.90;;;;;;4934198;29;20485;-48
2022/07/29 12:44:00;;;;;;;4.47;2.38;;;29.60;67.90;;;;;;4934487;29;20090;-52
2022/07/29 12:46:26;;;;;;;2.78;2.55;;;29.70;68.70;;;;;;4933532;29;20371;-49
2022/07/29 12:48:54;;;;;;;3.45;2.50;;;29.70;68.10;;;;;;4935012;29;20027;-52
2022/07/29 12:51:36;;;;;;;3.45;2.35;;;29.70;67.20;;;;;;4934878;29;20102;-52
2022/07/29 12:54:13;;;;;;;4.78;2.47;;;29.80;67.50;;;;;;4934225;29;20031;-52
2022/07/29 12:56:40;;;;;;;4.65;2.60;;;29.80;68.50;;;;;;4932725;29;20091;-51
2022/07/29 12:59:20;;;;;;;2.50;2.28;;;29.90;68.90;;;;;;4933822;29;20028;-50